sensor_id;sensor_type;location;lat;lon;timestamp;pressure;altitude;pressure_sealevel;temperature;humidity
73941;BME280;62294;48.554;10.202;2024-01-30T00:00:47;101553.47;;;-3.75;100.00
73941;BME280;62294;48.554;10.202;2024-01-30T00:03:13;101567.34;;;-3.70;100.00
73941;BME280;62294;48.554;10.202;2024-01-30T00:05:40;101563.00;;;-3.73;100.00
73941;BME280;62294;48.554;10.202;2024-01-30T00:08:07;101564.72;;;-3.78;100.00
73941;BME280;62294;48.554;10.202;2024-01-30T00:10:34;101566.44;;;-3.83;100.00
73941;BME280;62294;48.554;10.202;2024-01-30T00:13:00;101558.63;;;-3.87;100.00
73941;BME280;62294;48.554;10.202;2024-01-30T00:15:27;101555.16;;;-3.83;100.00
73941;BME280;62294;48.554;10.202;2024-01-30T00:17:54;101558.66;;;-3.81;100.00
73941;BME280;62294;48.554;10.202;2024-01-30T00:20:21;101549.09;;;-3.87;100.00
73941;BME280;62294;48.554;10.202;2024-01-30T00:22:47;101543.03;;;-3.90;100.00
73941;BME280;62294;48.554;10.202;2024-01-30T00:25:14;101549.94;;;-3.92;100.00
73941;BME280;62294;48.554;10.202;2024-01-30T00:27:41;101546.47;;;-3.94;100.00
73941;BME280;62294;48.554;10.202;2024-01-30T00:30:08;101537.81;;;-3.99;100.00
73941;BME280;62294;48.554;10.202;2024-01-30T00:32:35;101539.53;;;-3.97;100.00
73941;BME280;62294;48.554;10.202;2024-01-30T00:35:02;101537.81;;;-4.02;100.00
73941;BME280;62294;48.554;10.202;2024-01-30T00:37:29;101541.25;;;-4.03;100.00
73941;BME280;62294;48.554;10.202;2024-01-30T00:39:56;101532.59;;;-4.01;100.00
73941;BME280;62294;48.554;10.202;2024-01-30T00:42:23;101542.16;;;-3.89;100.00
73941;BME280;62294;48.554;10.202;2024-01-30T00:44:50;101547.38;;;-3.85;100.00
73941;BME280;62294;48.554;10.202;2024-01-30T00:47:17;101544.75;;;-3.92;100.00
73941;BME280;62294;48.554;10.202;2024-01-30T00:49:43;101556.91;;;-3.82;100.00
73941;BME280;62294;48.554;10.202;2024-01-30T00:52:10;101558.63;;;-3.83;100.00
73941;BME280;62294;48.554;10.202;2024-01-30T00:54:38;101551.69;;;-3.94;100.00
73941;BME280;62294;48.554;10.202;2024-01-30T00:57:04;101541.28;;;-3.97;100.00
73941;BME280;62294;48.554;10.202;2024-01-30T00:59:31;101531.72;;;-4.03;100.00
73941;BME280;62294;48.554;10.202;2024-01-30T01:01:58;101536.06;;;-4.03;100.00
73941;BME280;62294;48.554;10.202;2024-01-30T01:04:24;101538.66;;;-4.06;100.00
73941;BME280;62294;48.554;10.202;2024-01-30T01:06:53;101536.03;;;-4.14;100.00
73941;BME280;62294;48.554;10.202;2024-01-30T01:09:19;101544.69;;;-4.10;100.00
73941;BME280;62294;48.554;10.202;2024-01-30T01:11:46;101551.66;;;-4.06;100.00
73941;BME280;62294;48.554;10.202;2024-01-30T01:14:12;101549.03;;;-4.08;100.00
73941;BME280;62294;48.554;10.202;2024-01-30T01:16:39;101551.63;;;-4.09;100.00
73941;BME280;62294;48.554;10.202;2024-01-30T01:19:06;101541.22;;;-4.12;100.00
73941;BME280;62294;48.554;10.202;2024-01-30T01:21:32;101543.84;;;-4.11;100.00
73941;BME280;62294;48.554;10.202;2024-01-30T01:23:59;101551.63;;;-4.09;100.00
73941;BME280;62294;48.554;10.202;2024-01-30T01:26:25;101556.81;;;-4.08;100.00
73941;BME280;62294;48.554;10.202;2024-01-30T01:28:52;101558.56;;;-4.10;100.00
73941;BME280;62294;48.554;10.202;2024-01-30T01:31:18;101557.69;;;-4.12;100.00
73941;BME280;62294;48.554;10.202;2024-01-30T01:33:45;101549.00;;;-4.17;100.00
73941;BME280;62294;48.554;10.202;2024-01-30T01:36:13;101556.81;;;-4.08;100.00
73941;BME280;62294;48.554;10.202;2024-01-30T01:38:40;101571.59;;;-3.98;100.00
73941;BME280;62294;48.554;10.202;2024-01-30T01:41:06;101560.34;;;-3.98;100.00
73941;BME280;62294;48.554;10.202;2024-01-30T01:43:33;101551.63;;;-4.12;100.00
73941;BME280;62294;48.554;10.202;2024-01-30T01:45:59;101533.38;;;-4.21;100.00
73941;BME280;62294;48.554;10.202;2024-01-30T01:48:27;101529.06;;;-4.25;100.00
73941;BME280;62294;48.554;10.202;2024-01-30T01:50:54;101534.22;;;-4.28;100.00
73941;BME280;62294;48.554;10.202;2024-01-30T01:53:21;101533.38;;;-4.27;100.00
73941;BME280;62294;48.554;10.202;2024-01-30T01:55:48;101533.38;;;-4.26;100.00
73941;BME280;62294;48.554;10.202;2024-01-30T01:58:15;101545.50;;;-4.23;100.00
73941;BME280;62294;48.554;10.202;2024-01-30T02:00:42;101552.47;;;-4.21;100.00
73941;BME280;62294;48.554;10.202;2024-01-30T02:03:10;101554.22;;;-4.20;100.00
73941;BME280;62294;48.554;10.202;2024-01-30T02:05:38;101555.91;;;-4.19;100.00
73941;BME280;62294;48.554;10.202;2024-01-30T02:08:06;101550.72;;;-4.17;100.00
73941;BME280;62294;48.554;10.202;2024-01-30T02:10:33;101560.28;;;-4.16;100.00
73941;BME280;62294;48.554;10.202;2024-01-30T02:13:00;101549.88;;;-4.16;100.00
73941;BME280;62294;48.554;10.202;2024-01-30T02:15:27;101551.63;;;-4.15;100.00
73941;BME280;62294;48.554;10.202;2024-01-30T02:17:55;101556.81;;;-4.12;100.00
73941;BME280;62294;48.554;10.202;2024-01-30T02:20:24;101556.84;;;-4.09;100.00
73941;BME280;62294;48.554;10.202;2024-01-30T02:22:54;101567.22;;;-4.08;100.00
73941;BME280;62294;48.554;10.202;2024-01-30T02:25:30;101576.81;;;-3.99;100.00
73941;BME280;62294;48.554;10.202;2024-01-30T02:27:56;101595.94;;;-3.84;100.00
73941;BME280;62294;48.554;10.202;2024-01-30T02:30:23;101581.19;;;-3.86;100.00
73941;BME280;62294;48.554;10.202;2024-01-30T02:32:50;101584.66;;;-3.84;100.00
73941;BME280;62294;48.554;10.202;2024-01-30T02:35:16;101600.25;;;-3.78;100.00
73941;BME280;62294;48.554;10.202;2024-01-30T02:37:43;101595.94;;;-3.76;100.00
73941;BME280;62294;48.554;10.202;2024-01-30T02:40:09;101588.97;;;-3.79;100.00
73941;BME280;62294;48.554;10.202;2024-01-30T02:42:36;101595.94;;;-3.79;100.00
73941;BME280;62294;48.554;10.202;2024-01-30T02:45:03;101606.34;;;-3.79;100.00
73941;BME280;62294;48.554;10.202;2024-01-30T02:47:29;101607.19;;;-3.80;100.00
73941;BME280;62294;48.554;10.202;2024-01-30T02:49:56;101610.66;;;-3.80;100.00
73941;BME280;62294;48.554;10.202;2024-01-30T02:52:23;101602.00;;;-3.80;100.00
73941;BME280;62294;48.554;10.202;2024-01-30T02:54:50;101610.66;;;-3.78;100.00
73941;BME280;62294;48.554;10.202;2024-01-30T02:57:16;101603.72;;;-3.81;100.00
73941;BME280;62294;48.554;10.202;2024-01-30T02:59:43;101595.91;;;-3.81;100.00
73941;BME280;62294;48.554;10.202;2024-01-30T03:02:09;101587.25;;;-3.84;100.00
73941;BME280;62294;48.554;10.202;2024-01-30T03:04:36;101589.81;;;-3.87;100.00
73941;BME280;62294;48.554;10.202;2024-01-30T03:07:02;101602.00;;;-3.77;100.00
73941;BME280;62294;48.554;10.202;2024-01-30T03:09:29;101599.41;;;-3.73;100.00
73941;BME280;62294;48.554;10.202;2024-01-30T03:11:56;101598.53;;;-3.78;100.00
73941;BME280;62294;48.554;10.202;2024-01-30T03:14:22;101586.38;;;-3.80;100.00
73941;BME280;62294;48.554;10.202;2024-01-30T03:16:49;101572.47;;;-3.90;100.00
73941;BME280;62294;48.554;10.202;2024-01-30T03:19:16;101570.75;;;-3.95;100.00
73941;BME280;62294;48.554;10.202;2024-01-30T03:21:42;101576.81;;;-3.93;100.00
73941;BME280;62294;48.554;10.202;2024-01-30T03:24:09;101582.88;;;-3.94;100.00
73941;BME280;62294;48.554;10.202;2024-01-30T03:26:35;101577.69;;;-3.97;100.00
73941;BME280;62294;48.554;10.202;2024-01-30T03:29:02;101585.47;;;-3.94;100.00
73941;BME280;62294;48.554;10.202;2024-01-30T03:31:28;101596.72;;;-3.92;100.00
73941;BME280;62294;48.554;10.202;2024-01-30T03:33:55;101594.16;;;-3.88;100.00
73941;BME280;62294;48.554;10.202;2024-01-30T03:36:22;101586.34;;;-3.89;100.00
73941;BME280;62294;48.554;10.202;2024-01-30T03:38:48;101589.81;;;-3.92;100.00
73941;BME280;62294;48.554;10.202;2024-01-30T03:41:15;101593.28;;;-3.96;100.00
73941;BME280;62294;48.554;10.202;2024-01-30T03:43:41;101582.84;;;-4.00;100.00
73941;BME280;62294;48.554;10.202;2024-01-30T03:46:08;101582.84;;;-4.03;100.00
73941;BME280;62294;48.554;10.202;2024-01-30T03:48:34;101588.91;;;-4.07;100.00
73941;BME280;62294;48.554;10.202;2024-01-30T03:51:01;101589.75;;;-4.11;100.00
73941;BME280;62294;48.554;10.202;2024-01-30T03:53:28;101584.56;;;-4.11;100.00
73941;BME280;62294;48.554;10.202;2024-01-30T03:55:54;101594.03;;;-4.15;100.00
73941;BME280;62294;48.554;10.202;2024-01-30T03:58:22;101581.91;;;-4.19;100.00
73941;BME280;62294;48.554;10.202;2024-01-30T04:00:48;101577.59;;;-4.12;100.00
73941;BME280;62294;48.554;10.202;2024-01-30T04:03:15;101575.84;;;-4.16;100.00
73941;BME280;62294;48.554;10.202;2024-01-30T04:05:42;101573.22;;;-4.27;100.00
73941;BME280;62294;48.554;10.202;2024-01-30T04:08:09;101568.84;;;-4.33;100.00
73941;BME280;62294;48.554;10.202;2024-01-30T04:10:36;101582.78;;;-4.24;100.00
73941;BME280;62294;48.554;10.202;2024-01-30T04:13:02;101593.16;;;-4.24;100.00
73941;BME280;62294;48.554;10.202;2024-01-30T04:15:29;101583.59;;;-4.30;100.00
73941;BME280;62294;48.554;10.202;2024-01-30T04:17:58;101566.22;;;-4.40;100.00
73941;BME280;62294;48.554;10.202;2024-01-30T04:20:26;101571.41;;;-4.42;100.00
73941;BME280;62294;48.554;10.202;2024-01-30T04:22:52;101578.34;;;-4.44;100.00
73941;BME280;62294;48.554;10.202;2024-01-30T04:25:19;101591.31;;;-4.44;100.00
73941;BME280;62294;48.554;10.202;2024-01-30T04:27:46;101591.28;;;-4.48;100.00
73941;BME280;62294;48.554;10.202;2024-01-30T04:30:13;101591.28;;;-4.47;100.00
73941;BME280;62294;48.554;10.202;2024-01-30T04:32:40;101595.59;;;-4.52;100.00
73941;BME280;62294;48.554;10.202;2024-01-30T04:35:06;101598.22;;;-4.49;100.00
73941;BME280;62294;48.554;10.202;2024-01-30T04:37:37;101612.94;;;-4.45;100.00
73941;BME280;62294;48.554;10.202;2024-01-30T04:40:04;101608.59;;;-4.49;100.00
73941;BME280;62294;48.554;10.202;2024-01-30T04:42:32;101615.53;;;-4.48;100.00
73941;BME280;62294;48.554;10.202;2024-01-30T04:44:58;101614.66;;;-4.50;100.00
73941;BME280;62294;48.554;10.202;2024-01-30T04:47:25;101614.63;;;-4.54;100.00
73941;BME280;62294;48.554;10.202;2024-01-30T04:49:51;101614.63;;;-4.59;100.00
73941;BME280;62294;48.554;10.202;2024-01-30T04:52:18;101610.28;;;-4.57;100.00
73941;BME280;62294;48.554;10.202;2024-01-30T04:54:45;101615.50;;;-4.57;100.00
73941;BME280;62294;48.554;10.202;2024-01-30T04:57:11;101622.41;;;-4.59;100.00
73941;BME280;62294;48.554;10.202;2024-01-30T04:59:39;101641.50;;;-4.51;100.00
73941;BME280;62294;48.554;10.202;2024-01-30T05:02:06;101629.34;;;-4.55;100.00
73941;BME280;62294;48.554;10.202;2024-01-30T05:04:33;101630.19;;;-4.59;100.00
73941;BME280;62294;48.554;10.202;2024-01-30T05:07:00;101636.19;;;-4.66;100.00
73941;BME280;62294;48.554;10.202;2024-01-30T05:09:27;101636.19;;;-4.66;100.00
73941;BME280;62294;48.554;10.202;2024-01-30T05:11:53;101641.41;;;-4.66;100.00
73941;BME280;62294;48.554;10.202;2024-01-30T05:14:20;101649.22;;;-4.60;100.00
73941;BME280;62294;48.554;10.202;2024-01-30T05:16:47;101639.63;;;-4.67;100.00
73941;BME280;62294;48.554;10.202;2024-01-30T05:19:14;101644.00;;;-4.66;100.00
73941;BME280;62294;48.554;10.202;2024-01-30T05:21:41;101644.81;;;-4.70;100.00
73941;BME280;62294;48.554;10.202;2024-01-30T05:24:07;101642.22;;;-4.73;100.00
73941;BME280;62294;48.554;10.202;2024-01-30T05:26:36;101644.81;;;-4.71;100.00
73941;BME280;62294;48.554;10.202;2024-01-30T05:29:03;101666.47;;;-4.66;100.00
73941;BME280;62294;48.554;10.202;2024-01-30T05:31:30;101645.69;;;-4.69;100.00
73941;BME280;62294;48.554;10.202;2024-01-30T05:33:56;101643.91;;;-4.73;100.00
73941;BME280;62294;48.554;10.202;2024-01-30T05:36:23;101659.53;;;-4.70;100.00
73941;BME280;62294;48.554;10.202;2024-01-30T05:38:49;101667.41;;;-4.58;100.00
73941;BME280;62294;48.554;10.202;2024-01-30T05:41:16;101676.94;;;-4.57;100.00
73941;BME280;62294;48.554;10.202;2024-01-30T05:43:42;101669.06;;;-4.65;100.00
73941;BME280;62294;48.554;10.202;2024-01-30T05:46:09;101670.84;;;-4.62;100.00
73941;BME280;62294;48.554;10.202;2024-01-30T05:48:35;101667.34;;;-4.66;100.00
73941;BME280;62294;48.554;10.202;2024-01-30T05:51:02;101674.28;;;-4.68;100.00
73941;BME280;62294;48.554;10.202;2024-01-30T05:53:30;101659.53;;;-4.67;100.00
73941;BME280;62294;48.554;10.202;2024-01-30T05:55:57;101681.25;;;-4.58;100.00
73941;BME280;62294;48.554;10.202;2024-01-30T05:58:23;101673.44;;;-4.61;100.00
73941;BME280;62294;48.554;10.202;2024-01-30T06:00:50;101665.63;;;-4.64;100.00
73941;BME280;62294;48.554;10.202;2024-01-30T06:03:17;101664.72;;;-4.67;100.00
73941;BME280;62294;48.554;10.202;2024-01-30T06:05:43;101654.31;;;-4.73;100.00
73941;BME280;62294;48.554;10.202;2024-01-30T06:08:10;101651.72;;;-4.75;100.00
73941;BME280;62294;48.554;10.202;2024-01-30T06:10:36;101656.06;;;-4.71;100.00
73941;BME280;62294;48.554;10.202;2024-01-30T06:13:03;101669.84;;;-4.78;100.00
73941;BME280;62294;48.554;10.202;2024-01-30T06:15:30;101677.69;;;-4.72;100.00
73941;BME280;62294;48.554;10.202;2024-01-30T06:17:56;101701.97;;;-4.68;100.00
73941;BME280;62294;48.554;10.202;2024-01-30T06:20:23;101705.41;;;-4.71;100.00
73941;BME280;62294;48.554;10.202;2024-01-30T06:22:50;101711.47;;;-4.70;100.00
73941;BME280;62294;48.554;10.202;2024-01-30T06:25:19;101720.03;;;-4.79;100.00
73941;BME280;62294;48.554;10.202;2024-01-30T06:27:46;101713.94;;;-4.84;100.00
73941;BME280;62294;48.554;10.202;2024-01-30T06:30:13;101733.84;;;-4.83;100.00
73941;BME280;62294;48.554;10.202;2024-01-30T06:32:39;101754.59;;;-4.81;100.00
73941;BME280;62294;48.554;10.202;2024-01-30T06:35:06;101769.41;;;-4.73;100.00
73941;BME280;62294;48.554;10.202;2024-01-30T06:37:33;101787.63;;;-4.68;100.00
73941;BME280;62294;48.554;10.202;2024-01-30T06:40:00;101791.91;;;-4.72;100.00
73941;BME280;62294;48.554;10.202;2024-01-30T06:42:26;101795.38;;;-4.73;100.00
73941;BME280;62294;48.554;10.202;2024-01-30T06:44:53;101804.00;;;-4.74;100.00
73941;BME280;62294;48.554;10.202;2024-01-30T06:47:20;101807.56;;;-4.66;100.00
73941;BME280;62294;48.554;10.202;2024-01-30T06:49:46;101809.25;;;-4.71;100.00
73941;BME280;62294;48.554;10.202;2024-01-30T06:52:13;101808.41;;;-4.65;100.00
73941;BME280;62294;48.554;10.202;2024-01-30T06:54:40;101819.72;;;-4.60;100.00
73941;BME280;62294;48.554;10.202;2024-01-30T06:57:07;101820.59;;;-4.61;100.00
73941;BME280;62294;48.554;10.202;2024-01-30T06:59:38;101825.81;;;-4.61;100.00
73941;BME280;62294;48.554;10.202;2024-01-30T07:02:10;101827.56;;;-4.59;100.00
73941;BME280;62294;48.554;10.202;2024-01-30T07:04:37;101825.84;;;-4.55;100.00
73941;BME280;62294;48.554;10.202;2024-01-30T07:07:05;101828.44;;;-4.55;100.00
73941;BME280;62294;48.554;10.202;2024-01-30T07:09:32;101840.69;;;-4.45;100.00
73941;BME280;62294;48.554;10.202;2024-01-30T07:11:58;101840.72;;;-4.38;100.00
73941;BME280;62294;48.554;10.202;2024-01-30T07:14:25;101861.59;;;-4.28;100.00
73941;BME280;62294;48.554;10.202;2024-01-30T07:16:51;101875.56;;;-4.17;100.00
73941;BME280;62294;48.554;10.202;2024-01-30T07:19:18;101886.06;;;-4.05;100.00
73941;BME280;62294;48.554;10.202;2024-01-30T07:21:45;101900.03;;;-3.96;100.00
73941;BME280;62294;48.554;10.202;2024-01-30T07:24:12;101917.50;;;-3.78;100.00
73941;BME280;62294;48.554;10.202;2024-01-30T07:26:38;101920.13;;;-3.75;100.00
73941;BME280;62294;48.554;10.202;2024-01-30T07:29:05;101923.69;;;-3.63;100.00
73941;BME280;62294;48.554;10.202;2024-01-30T07:31:31;101940.25;;;-3.53;100.00
73941;BME280;62294;48.554;10.202;2024-01-30T07:34:00;101955.97;;;-3.35;100.00
73941;BME280;62294;48.554;10.202;2024-01-30T07:36:26;101941.28;;;-3.31;100.00
73941;BME280;62294;48.554;10.202;2024-01-30T07:38:53;101938.69;;;-3.24;100.00
73941;BME280;62294;48.554;10.202;2024-01-30T07:41:21;101943.13;;;-3.08;100.00
73941;BME280;62294;48.554;10.202;2024-01-30T07:43:47;101945.91;;;-2.83;100.00
73941;BME280;62294;48.554;10.202;2024-01-30T07:46:14;101957.28;;;-2.57;100.00
73941;BME280;62294;48.554;10.202;2024-01-30T07:48:40;101952.97;;;-2.51;100.00
73941;BME280;62294;48.554;10.202;2024-01-30T07:51:07;101953.84;;;-2.50;100.00
73941;BME280;62294;48.554;10.202;2024-01-30T07:53:33;101962.59;;;-2.33;100.00
73941;BME280;62294;48.554;10.202;2024-01-30T07:56:00;102000.94;;;-1.82;100.00
73941;BME280;62294;48.554;10.202;2024-01-30T07:58:26;102014.06;;;-1.45;100.00
73941;BME280;62294;48.554;10.202;2024-01-30T08:00:56;102045.38;;;-1.02;100.00
73941;BME280;62294;48.554;10.202;2024-01-30T08:03:25;102070.59;;;-0.73;100.00
73941;BME280;62294;48.554;10.202;2024-01-30T08:05:51;102099.22;;;-0.23;100.00
73941;BME280;62294;48.554;10.202;2024-01-30T08:08:18;102133.88;;;0.37;100.00
73941;BME280;62294;48.554;10.202;2024-01-30T08:10:45;102175.53;;;0.87;100.00
73941;BME280;62294;48.554;10.202;2024-01-30T08:13:11;102225.97;;;1.17;100.00
73941;BME280;62294;48.554;10.202;2024-01-30T08:15:38;102232.72;;;1.49;100.00
73941;BME280;62294;48.554;10.202;2024-01-30T08:18:04;102254.97;;;2.04;100.00
73941;BME280;62294;48.554;10.202;2024-01-30T08:20:33;102250.38;;;2.27;100.00
73941;BME280;62294;48.554;10.202;2024-01-30T08:23:00;102280.31;;;2.85;100.00
73941;BME280;62294;48.554;10.202;2024-01-30T08:25:27;102290.38;;;3.20;100.00
73941;BME280;62294;48.554;10.202;2024-01-30T08:27:53;102239.91;;;2.93;100.00
73941;BME280;62294;48.554;10.202;2024-01-30T08:30:20;102232.34;;;3.31;100.00
73941;BME280;62294;48.554;10.202;2024-01-30T08:32:47;102246.38;;;3.85;100.00
73941;BME280;62294;48.554;10.202;2024-01-30T08:35:13;102248.13;;;4.31;100.00
73941;BME280;62294;48.554;10.202;2024-01-30T08:37:42;102241.84;;;4.40;100.00
73941;BME280;62294;48.554;10.202;2024-01-30T08:40:09;102135.56;;;3.95;100.00
73941;BME280;62294;48.554;10.202;2024-01-30T08:42:36;102034.34;;;3.67;100.00
73941;BME280;62294;48.554;10.202;2024-01-30T08:45:03;101832.78;;;2.76;100.00
73941;BME280;62294;48.554;10.202;2024-01-30T08:47:31;101761.34;;;2.56;100.00
73941;BME280;62294;48.554;10.202;2024-01-30T08:49:57;101684.09;;;2.22;100.00
73941;BME280;62294;48.554;10.202;2024-01-30T08:52:24;101597.22;;;1.91;100.00
73941;BME280;62294;48.554;10.202;2024-01-30T08:54:51;101565.88;;;1.85;100.00
73941;BME280;62294;48.554;10.202;2024-01-30T08:57:17;101561.63;;;2.19;100.00
73941;BME280;62294;48.554;10.202;2024-01-30T08:59:44;101569.34;;;2.65;100.00
73941;BME280;62294;48.554;10.202;2024-01-30T09:02:13;101554.66;;;2.93;100.00
73941;BME280;62294;48.554;10.202;2024-01-30T09:04:42;101492.44;;;2.58;100.00
73941;BME280;62294;48.554;10.202;2024-01-30T09:07:09;101454.94;;;2.52;100.00
73941;BME280;62294;48.554;10.202;2024-01-30T09:09:38;101444.91;;;2.69;100.00
73941;BME280;62294;48.554;10.202;2024-01-30T09:12:06;101479.00;;;3.36;100.00
73941;BME280;62294;48.554;10.202;2024-01-30T09:14:36;101406.38;;;3.00;100.00
73941;BME280;62294;48.554;10.202;2024-01-30T09:17:03;101385.59;;;3.22;100.00
73941;BME280;62294;48.554;10.202;2024-01-30T09:19:30;101353.22;;;3.20;100.00
73941;BME280;62294;48.554;10.202;2024-01-30T09:21:57;101312.09;;;3.19;100.00
73941;BME280;62294;48.554;10.202;2024-01-30T09:24:24;101278.13;;;3.11;100.00
73941;BME280;62294;48.554;10.202;2024-01-30T09:26:51;101252.78;;;3.09;100.00
73941;BME280;62294;48.554;10.202;2024-01-30T09:29:18;101222.84;;;3.13;100.00
73941;BME280;62294;48.554;10.202;2024-01-30T09:31:45;101160.47;;;2.61;100.00
73941;BME280;62294;48.554;10.202;2024-01-30T09:34:12;101126.53;;;2.55;100.00
73941;BME280;62294;48.554;10.202;2024-01-30T09:36:39;101106.75;;;2.43;100.00
73941;BME280;62294;48.554;10.202;2024-01-30T09:39:06;101112.53;;;2.54;100.00
73941;BME280;62294;48.554;10.202;2024-01-30T09:41:39;101100.28;;;2.53;100.00
73941;BME280;62294;48.554;10.202;2024-01-30T09:44:07;101066.34;;;2.18;100.00
73941;BME280;62294;48.554;10.202;2024-01-30T09:46:35;101038.91;;;1.99;100.00
73941;BME280;62294;48.554;10.202;2024-01-30T09:49:02;101050.13;;;2.04;100.00
73941;BME280;62294;48.554;10.202;2024-01-30T09:51:29;101042.47;;;1.96;100.00
73941;BME280;62294;48.554;10.202;2024-01-30T09:53:56;101075.31;;;2.40;100.00
73941;BME280;62294;48.554;10.202;2024-01-30T09:56:23;101103.06;;;2.76;100.00
73941;BME280;62294;48.554;10.202;2024-01-30T09:58:49;101111.81;;;3.05;100.00
73941;BME280;62294;48.554;10.202;2024-01-30T10:01:17;101083.19;;;2.96;100.00
73941;BME280;62294;48.554;10.202;2024-01-30T10:03:45;101075.72;;;3.10;100.00
73941;BME280;62294;48.554;10.202;2024-01-30T10:06:12;101051.56;;;2.99;100.00
73941;BME280;62294;48.554;10.202;2024-01-30T10:08:39;100998.28;;;2.67;100.00
73941;BME280;62294;48.554;10.202;2024-01-30T10:11:06;100967.31;;;2.23;100.00
73941;BME280;62294;48.554;10.202;2024-01-30T10:13:33;100959.59;;;2.19;100.00
73941;BME280;62294;48.554;10.202;2024-01-30T10:16:00;100949.31;;;2.11;100.00
73941;BME280;62294;48.554;10.202;2024-01-30T10:18:28;100966.38;;;2.26;100.00
73941;BME280;62294;48.554;10.202;2024-01-30T10:20:55;100976.97;;;2.49;100.00
73941;BME280;62294;48.554;10.202;2024-01-30T10:23:21;101007.28;;;2.86;100.00
73941;BME280;62294;48.554;10.202;2024-01-30T10:25:48;101019.41;;;3.17;100.00
73941;BME280;62294;48.554;10.202;2024-01-30T10:30:42;100969.38;;;2.94;100.00
73941;BME280;62294;48.554;10.202;2024-01-30T10:33:09;100968.25;;;3.01;100.00
73941;BME280;62294;48.554;10.202;2024-01-30T10:35:36;100956.81;;;3.02;100.00
73941;BME280;62294;48.554;10.202;2024-01-30T10:38:03;100955.75;;;3.07;100.00
73941;BME280;62294;48.554;10.202;2024-01-30T10:40:33;100950.50;;;3.07;100.00
73941;BME280;62294;48.554;10.202;2024-01-30T10:43:01;100954.50;;;3.17;100.00
73941;BME280;62294;48.554;10.202;2024-01-30T10:45:31;100955.66;;;3.35;100.00
73941;BME280;62294;48.554;10.202;2024-01-30T10:47:59;100937.50;;;3.27;100.00
73941;BME280;62294;48.554;10.202;2024-01-30T10:50:29;100931.53;;;3.24;100.00
73941;BME280;62294;48.554;10.202;2024-01-30T10:52:58;100921.03;;;3.22;100.00
73941;BME280;62294;48.554;10.202;2024-01-30T10:55:27;100931.75;;;3.41;100.00
73941;BME280;62294;48.554;10.202;2024-01-30T10:57:55;100930.50;;;3.51;100.00
73941;BME280;62294;48.554;10.202;2024-01-30T11:00:22;100933.34;;;3.68;100.00
73941;BME280;62294;48.554;10.202;2024-01-30T11:02:50;100911.06;;;3.55;100.00
73941;BME280;62294;48.554;10.202;2024-01-30T11:05:24;100903.16;;;3.55;100.00
73941;BME280;62294;48.554;10.202;2024-01-30T11:07:59;100886.78;;;3.47;100.00
73941;BME280;62294;48.554;10.202;2024-01-30T11:10:25;100916.00;;;3.86;100.00
73941;BME280;62294;48.554;10.202;2024-01-30T11:12:52;100914.38;;;3.83;100.00
73941;BME280;62294;48.554;10.202;2024-01-30T11:15:19;100901.75;;;3.91;100.00
73941;BME280;62294;48.554;10.202;2024-01-30T11:22:46;100906.25;;;4.32;100.00
73941;BME280;62294;48.554;10.202;2024-01-30T11:25:14;100884.56;;;4.26;100.00
73941;BME280;62294;48.554;10.202;2024-01-30T11:27:41;100914.38;;;4.70;100.00
73941;BME280;62294;48.554;10.202;2024-01-30T11:30:08;100899.84;;;4.80;100.00
73941;BME280;62294;48.554;10.202;2024-01-30T11:32:35;100893.28;;;4.90;100.00
73941;BME280;62294;48.554;10.202;2024-01-30T11:35:05;100901.16;;;5.30;100.00
73941;BME280;62294;48.554;10.202;2024-01-30T11:37:37;100888.97;;;5.46;100.00
73941;BME280;62294;48.554;10.202;2024-01-30T11:40:08;100852.03;;;5.46;100.00
73941;BME280;62294;48.554;10.202;2024-01-30T11:42:36;100813.88;;;5.35;100.00
73941;BME280;62294;48.554;10.202;2024-01-30T11:45:05;100787.28;;;5.39;100.00
73941;BME280;62294;48.554;10.202;2024-01-30T11:47:35;100763.31;;;5.44;100.00
73941;BME280;62294;48.554;10.202;2024-01-30T11:50:04;100744.03;;;5.60;100.00
73941;BME280;62294;48.554;10.202;2024-01-30T11:52:36;100717.97;;;5.71;100.00
73941;BME280;62294;48.554;10.202;2024-01-30T11:55:03;100663.31;;;5.56;100.00
73941;BME280;62294;48.554;10.202;2024-01-30T11:57:30;100634.59;;;5.67;100.00
73941;BME280;62294;48.554;10.202;2024-01-30T11:59:56;100606.88;;;5.76;100.00
73941;BME280;62294;48.554;10.202;2024-01-30T12:02:23;100593.28;;;5.84;100.00
73941;BME280;62294;48.554;10.202;2024-01-30T12:04:49;100576.19;;;6.08;100.00
73941;BME280;62294;48.554;10.202;2024-01-30T12:07:16;100545.44;;;6.07;100.00
73941;BME280;62294;48.554;10.202;2024-01-30T12:09:52;100517.56;;;6.17;100.00
73941;BME280;62294;48.554;10.202;2024-01-30T12:12:19;100494.81;;;6.30;100.00
73941;BME280;62294;48.554;10.202;2024-01-30T12:14:46;100473.25;;;6.53;100.00
73941;BME280;62294;48.554;10.202;2024-01-30T12:17:32;100445.97;;;6.37;100.00
73941;BME280;62294;48.554;10.202;2024-01-30T12:20:09;100431.81;;;6.54;100.00
73941;BME280;62294;48.554;10.202;2024-01-30T12:22:47;100421.63;;;6.48;100.00
73941;BME280;62294;48.554;10.202;2024-01-30T12:25:18;100396.88;;;6.49;100.00
73941;BME280;62294;48.554;10.202;2024-01-30T12:27:47;100382.38;;;6.56;100.00
73941;BME280;62294;48.554;10.202;2024-01-30T12:30:19;100379.06;;;6.82;100.00
73941;BME280;62294;48.554;10.202;2024-01-30T12:32:49;100338.00;;;6.61;100.00
73941;BME280;62294;48.554;10.202;2024-01-30T12:35:18;100312.75;;;6.71;100.00
73941;BME280;62294;48.554;10.202;2024-01-30T12:37:47;100293.09;;;6.75;100.00
73941;BME280;62294;48.554;10.202;2024-01-30T12:40:14;100273.16;;;6.69;100.00